sensor_id;sensor_type;location;lat;lon;timestamp;pressure;altitude;pressure_sealevel;temperature;humidity
21545;BME280;10933;50.754;11.508;2023-06-22T00:00:59;99981.97;;;18.17;100.00
21545;BME280;10933;50.754;11.508;2023-06-22T00:03:26;99975.22;;;18.09;100.00
21545;BME280;10933;50.754;11.508;2023-06-22T00:05:53;99981.81;;;18.03;100.00
21545;BME280;10933;50.754;11.508;2023-06-22T00:08:19;99975.50;;;18.08;100.00
21545;BME280;10933;50.754;11.508;2023-06-22T00:10:46;99989.69;;;18.10;100.00
21545;BME280;10933;50.754;11.508;2023-06-22T00:13:14;99988.88;;;18.09;100.00
21545;BME280;10933;50.754;11.508;2023-06-22T00:15:42;99991.53;;;18.14;100.00
21545;BME280;10933;50.754;11.508;2023-06-22T00:18:09;100001.34;;;18.15;100.00
21545;BME280;10933;50.754;11.508;2023-06-22T00:20:36;100010.94;;;18.13;100.00
21545;BME280;10933;50.754;11.508;2023-06-22T00:23:06;100016.63;;;18.16;100.00
21545;BME280;10933;50.754;11.508;2023-06-22T00:25:38;100011.63;;;18.23;100.00
21545;BME280;10933;50.754;11.508;2023-06-22T00:28:08;100009.28;;;18.17;100.00
21545;BME280;10933;50.754;11.508;2023-06-22T00:30:35;99998.06;;;18.18;100.00
21545;BME280;10933;50.754;11.508;2023-06-22T00:33:01;99995.03;;;18.20;100.00
21545;BME280;10933;50.754;11.508;2023-06-22T00:35:27;99999.31;;;18.26;100.00
21545;BME280;10933;50.754;11.508;2023-06-22T00:37:58;99999.03;;;18.28;100.00
21545;BME280;10933;50.754;11.508;2023-06-22T00:40:35;99995.38;;;18.37;100.00
21545;BME280;10933;50.754;11.508;2023-06-22T00:43:02;99997.22;;;18.42;100.00
21545;BME280;10933;50.754;11.508;2023-06-22T00:45:28;99991.75;;;18.42;100.00
21545;BME280;10933;50.754;11.508;2023-06-22T00:47:58;99987.94;;;18.43;100.00
21545;BME280;10933;50.754;11.508;2023-06-22T00:50:27;99972.69;;;18.37;100.00
21545;BME280;10933;50.754;11.508;2023-06-22T00:53:08;99967.88;;;18.29;100.00
21545;BME280;10933;50.754;11.508;2023-06-22T00:55:41;99966.25;;;18.28;100.00
21545;BME280;10933;50.754;11.508;2023-06-22T00:58:17;99958.19;;;18.17;100.00
21545;BME280;10933;50.754;11.508;2023-06-22T01:00:48;99950.56;;;18.14;100.00
21545;BME280;10933;50.754;11.508;2023-06-22T01:03:14;99943.44;;;18.18;100.00
21545;BME280;10933;50.754;11.508;2023-06-22T01:05:42;99945.06;;;18.19;100.00
21545;BME280;10933;50.754;11.508;2023-06-22T01:08:23;99934.97;;;18.20;100.00
21545;BME280;10933;50.754;11.508;2023-06-22T01:11:09;99947.28;;;18.17;100.00
21545;BME280;10933;50.754;11.508;2023-06-22T01:14:03;99948.09;;;18.18;100.00
21545;BME280;10933;50.754;11.508;2023-06-22T01:16:33;99950.00;;;18.17;100.00
21545;BME280;10933;50.754;11.508;2023-06-22T01:22:16;99953.78;;;18.21;100.00
21545;BME280;10933;50.754;11.508;2023-06-22T01:25:15;99955.16;;;18.43;100.00
21545;BME280;10933;50.754;11.508;2023-06-22T01:28:05;99961.78;;;18.37;100.00
21545;BME280;10933;50.754;11.508;2023-06-22T01:30:34;99955.16;;;18.43;100.00
21545;BME280;10933;50.754;11.508;2023-06-22T01:33:04;99958.41;;;18.45;100.00
21545;BME280;10933;50.754;11.508;2023-06-22T01:35:31;99960.63;;;18.43;100.00
21545;BME280;10933;50.754;11.508;2023-06-22T01:37:57;99961.44;;;18.43;100.00
21545;BME280;10933;50.754;11.508;2023-06-22T01:40:24;99956.19;;;18.47;100.00
21545;BME280;10933;50.754;11.508;2023-06-22T01:42:50;99945.31;;;18.42;100.00
21545;BME280;10933;50.754;11.508;2023-06-22T01:45:18;99943.63;;;18.46;100.00
21545;BME280;10933;50.754;11.508;2023-06-22T01:47:45;99942.31;;;18.43;100.00
21545;BME280;10933;50.754;11.508;2023-06-22T01:50:12;99939.03;;;18.41;100.00
21545;BME280;10933;50.754;11.508;2023-06-22T01:52:38;99934.63;;;18.45;100.00
21545;BME280;10933;50.754;11.508;2023-06-22T01:55:04;99934.97;;;18.20;100.00
21545;BME280;10933;50.754;11.508;2023-06-22T01:57:32;99927.78;;;18.24;100.00
21545;BME280;10933;50.754;11.508;2023-06-22T02:00:12;99922.97;;;18.16;100.00
21545;BME280;10933;50.754;11.508;2023-06-22T02:02:57;99917.59;;;18.11;100.00
21545;BME280;10933;50.754;11.508;2023-06-22T02:05:33;99914.97;;;18.24;100.00
21545;BME280;10933;50.754;11.508;2023-06-22T02:08:09;99925.47;;;18.36;100.00
21545;BME280;10933;50.754;11.508;2023-06-22T02:10:40;99933.25;;;18.24;100.00
21545;BME280;10933;50.754;11.508;2023-06-22T02:13:09;99939.00;;;18.22;100.00
21545;BME280;10933;50.754;11.508;2023-06-22T02:15:36;99945.47;;;18.32;100.00
21545;BME280;10933;50.754;11.508;2023-06-22T02:18:02;99947.41;;;18.07;100.00
21545;BME280;10933;50.754;11.508;2023-06-22T02:20:28;99929.38;;;18.30;100.00
21545;BME280;10933;50.754;11.508;2023-06-22T02:22:54;99932.16;;;18.25;100.00
21545;BME280;10933;50.754;11.508;2023-06-22T02:25:20;99934.25;;;18.09;100.00
21545;BME280;10933;50.754;11.508;2023-06-22T02:27:46;99926.81;;;17.91;100.00
21545;BME280;10933;50.754;11.508;2023-06-22T02:30:14;99938.31;;;17.88;100.00
21545;BME280;10933;50.754;11.508;2023-06-22T02:32:42;99946.50;;;17.88;100.00
21545;BME280;10933;50.754;11.508;2023-06-22T02:35:11;99954.16;;;17.86;100.00
21545;BME280;10933;50.754;11.508;2023-06-22T02:37:38;99950.41;;;18.06;100.00
21545;BME280;10933;50.754;11.508;2023-06-22T02:40:08;99953.31;;;18.14;100.00
21545;BME280;10933;50.754;11.508;2023-06-22T02:42:39;99955.22;;;17.90;100.00
21545;BME280;10933;50.754;11.508;2023-06-22T02:45:06;99947.09;;;17.85;100.00
21545;BME280;10933;50.754;11.508;2023-06-22T02:47:32;99936.59;;;17.97;100.00
21545;BME280;10933;50.754;11.508;2023-06-22T02:49:58;99947.72;;;17.77;100.00
21545;BME280;10933;50.754;11.508;2023-06-22T02:52:23;99948.06;;;17.70;100.00
21545;BME280;10933;50.754;11.508;2023-06-22T02:54:49;99953.25;;;17.67;100.00
21545;BME280;10933;50.754;11.508;2023-06-22T02:57:15;99958.72;;;17.67;100.00
21545;BME280;10933;50.754;11.508;2023-06-22T02:59:41;99975.91;;;17.67;100.00
21545;BME280;10933;50.754;11.508;2023-06-22T03:02:10;99986.97;;;17.81;100.00
21545;BME280;10933;50.754;11.508;2023-06-22T03:04:37;99993.72;;;17.88;100.00
21545;BME280;10933;50.754;11.508;2023-06-22T03:07:03;100000.94;;;18.03;100.00
21545;BME280;10933;50.754;11.508;2023-06-22T03:09:29;100021.41;;;18.06;100.00
21545;BME280;10933;50.754;11.508;2023-06-22T03:11:56;100024.13;;;17.77;100.00
21545;BME280;10933;50.754;11.508;2023-06-22T03:14:22;100033.44;;;17.65;100.00
21545;BME280;10933;50.754;11.508;2023-06-22T03:16:48;100039.50;;;17.62;100.00
21545;BME280;10933;50.754;11.508;2023-06-22T03:19:14;100059.16;;;17.59;100.00
21545;BME280;10933;50.754;11.508;2023-06-22T03:21:40;100066.88;;;17.47;100.00
21545;BME280;10933;50.754;11.508;2023-06-22T03:24:07;100074.56;;;17.40;100.00
21545;BME280;10933;50.754;11.508;2023-06-22T03:26:34;100097.53;;;17.34;100.00
21545;BME280;10933;50.754;11.508;2023-06-22T03:29:00;100107.91;;;17.32;100.00
21545;BME280;10933;50.754;11.508;2023-06-22T03:31:27;100119.38;;;17.29;100.00
21545;BME280;10933;50.754;11.508;2023-06-22T03:33:53;100135.13;;;17.42;100.00
21545;BME280;10933;50.754;11.508;2023-06-22T03:36:19;100138.44;;;17.34;100.00
21545;BME280;10933;50.754;11.508;2023-06-22T03:38:47;100131.38;;;17.28;100.00
21545;BME280;10933;50.754;11.508;2023-06-22T03:41:13;100130.00;;;17.25;100.00
21545;BME280;10933;50.754;11.508;2023-06-22T03:43:39;100125.94;;;17.23;100.00
21545;BME280;10933;50.754;11.508;2023-06-22T03:46:06;100128.66;;;17.23;100.00
21545;BME280;10933;50.754;11.508;2023-06-22T03:48:32;100126.22;;;17.21;100.00
21545;BME280;10933;50.754;11.508;2023-06-22T03:51:02;100126.19;;;17.31;100.00
21545;BME280;10933;50.754;11.508;2023-06-22T03:53:29;100119.84;;;17.41;100.00
21545;BME280;10933;50.754;11.508;2023-06-22T03:55:55;100117.13;;;17.41;100.00
21545;BME280;10933;50.754;11.508;2023-06-22T03:58:22;100115.94;;;17.57;100.00
21545;BME280;10933;50.754;11.508;2023-06-22T04:00:50;100113.63;;;17.75;100.00
21545;BME280;10933;50.754;11.508;2023-06-22T04:03:17;100107.13;;;17.71;100.00
21545;BME280;10933;50.754;11.508;2023-06-22T04:05:47;100090.69;;;17.81;100.00
21545;BME280;10933;50.754;11.508;2023-06-22T04:08:14;100091.13;;;17.93;100.00
21545;BME280;10933;50.754;11.508;2023-06-22T04:10:41;100084.56;;;17.94;100.00
21545;BME280;10933;50.754;11.508;2023-06-22T04:13:07;100073.72;;;17.84;100.00
21545;BME280;10933;50.754;11.508;2023-06-22T04:15:33;100070.13;;;17.88;100.00
21545;BME280;10933;50.754;11.508;2023-06-22T04:17:59;100043.63;;;17.94;100.00
21545;BME280;10933;50.754;11.508;2023-06-22T04:20:25;100015.91;;;17.82;100.00
21545;BME280;10933;50.754;11.508;2023-06-22T04:22:54;100027.34;;;17.84;100.00
21545;BME280;10933;50.754;11.508;2023-06-22T04:25:21;100030.00;;;17.89;100.00
21545;BME280;10933;50.754;11.508;2023-06-22T04:27:49;100007.72;;;17.82;100.00
21545;BME280;10933;50.754;11.508;2023-06-22T04:30:15;100010.47;;;17.77;100.00
21545;BME280;10933;50.754;11.508;2023-06-22T04:32:42;99997.91;;;17.81;100.00
21545;BME280;10933;50.754;11.508;2023-06-22T04:35:09;99990.53;;;17.81;100.00
21545;BME280;10933;50.754;11.508;2023-06-22T04:37:36;99984.19;;;17.86;100.00
21545;BME280;10933;50.754;11.508;2023-06-22T04:40:02;99971.03;;;17.93;100.00
21545;BME280;10933;50.754;11.508;2023-06-22T04:42:30;99961.09;;;18.02;100.00
21545;BME280;10933;50.754;11.508;2023-06-22T04:44:57;99944.00;;;18.15;100.00
21545;BME280;10933;50.754;11.508;2023-06-22T04:47:24;99929.13;;;18.27;100.00
21545;BME280;10933;50.754;11.508;2023-06-22T04:49:50;99924.88;;;18.15;100.00
21545;BME280;10933;50.754;11.508;2023-06-22T04:52:16;99924.97;;;18.10;100.00
21545;BME280;10933;50.754;11.508;2023-06-22T04:54:43;99918.63;;;18.15;100.00
21545;BME280;10933;50.754;11.508;2023-06-22T04:57:13;99909.50;;;18.24;100.00
21545;BME280;10933;50.754;11.508;2023-06-22T04:59:40;99897.84;;;18.38;100.00
21545;BME280;10933;50.754;11.508;2023-06-22T05:02:07;99884.50;;;18.36;100.00
21545;BME280;10933;50.754;11.508;2023-06-22T05:04:34;99898.88;;;18.42;100.00
21545;BME280;10933;50.754;11.508;2023-06-22T05:07:04;99905.41;;;18.46;100.00
21545;BME280;10933;50.754;11.508;2023-06-22T05:09:31;99906.16;;;18.70;100.00
21545;BME280;10933;50.754;11.508;2023-06-22T05:11:59;99911.63;;;18.70;100.00
21545;BME280;10933;50.754;11.508;2023-06-22T05:14:28;99908.75;;;18.80;100.00
21545;BME280;10933;50.754;11.508;2023-06-22T05:16:54;99905.78;;;18.77;100.00
21545;BME280;10933;50.754;11.508;2023-06-22T05:19:24;99907.91;;;18.99;100.00
21545;BME280;10933;50.754;11.508;2023-06-22T05:21:51;99919.38;;;18.82;100.00
21545;BME280;10933;50.754;11.508;2023-06-22T05:24:17;99916.97;;;18.80;100.00
21545;BME280;10933;50.754;11.508;2023-06-22T05:26:43;99919.16;;;18.97;100.00
21545;BME280;10933;50.754;11.508;2023-06-22T05:29:09;99930.38;;;19.28;100.00
21545;BME280;10933;50.754;11.508;2023-06-22T05:31:36;99926.59;;;20.17;100.00
21545;BME280;10933;50.754;11.508;2023-06-22T05:34:02;99919.13;;;20.95;100.00
21545;BME280;10933;50.754;11.508;2023-06-22T05:36:28;99929.38;;;22.18;100.00
21545;BME280;10933;50.754;11.508;2023-06-22T05:38:56;99931.69;;;23.72;100.00
21545;BME280;10933;50.754;11.508;2023-06-22T05:41:22;99917.19;;;24.22;100.00
21545;BME280;10933;50.754;11.508;2023-06-22T05:43:48;99925.75;;;25.54;100.00
21545;BME280;10933;50.754;11.508;2023-06-22T05:46:15;99970.88;;;26.16;100.00
21545;BME280;10933;50.754;11.508;2023-06-22T05:48:41;100061.13;;;26.20;100.00
21545;BME280;10933;50.754;11.508;2023-06-22T05:51:07;100102.22;;;25.56;100.00
21545;BME280;10933;50.754;11.508;2023-06-22T05:53:33;100122.94;;;25.41;100.00
21545;BME280;10933;50.754;11.508;2023-06-22T05:55:59;100134.03;;;25.11;100.00
21545;BME280;10933;50.754;11.508;2023-06-22T05:58:25;100125.81;;;24.94;100.00
21545;BME280;10933;50.754;11.508;2023-06-22T06:00:51;100125.94;;;25.77;100.00
21545;BME280;10933;50.754;11.508;2023-06-22T06:03:18;100141.41;;;25.49;100.00
21545;BME280;10933;50.754;11.508;2023-06-22T06:05:45;100144.84;;;25.46;100.00
21545;BME280;10933;50.754;11.508;2023-06-22T06:08:11;100130.47;;;26.85;100.00
21545;BME280;10933;50.754;11.508;2023-06-22T06:10:38;100153.50;;;25.86;100.00
21545;BME280;10933;50.754;11.508;2023-06-22T06:13:04;100142.81;;;25.34;100.00
21545;BME280;10933;50.754;11.508;2023-06-22T06:15:31;100143.66;;;25.76;100.00
21545;BME280;10933;50.754;11.508;2023-06-22T06:17:58;100134.41;;;26.84;100.00
21545;BME280;10933;50.754;11.508;2023-06-22T06:20:25;100150.41;;;26.66;100.00
21545;BME280;10933;50.754;11.508;2023-06-22T06:22:53;100175.63;;;27.22;100.00
21545;BME280;10933;50.754;11.508;2023-06-22T06:25:20;100166.13;;;27.35;100.00
21545;BME280;10933;50.754;11.508;2023-06-22T06:27:48;100176.25;;;27.55;100.00
21545;BME280;10933;50.754;11.508;2023-06-22T06:30:16;100180.94;;;28.63;100.00
21545;BME280;10933;50.754;11.508;2023-06-22T06:32:43;100207.31;;;27.73;100.00
21545;BME280;10933;50.754;11.508;2023-06-22T06:35:12;100204.03;;;26.61;100.00
21545;BME280;10933;50.754;11.508;2023-06-22T06:37:40;100165.13;;;25.50;100.00
21545;BME280;10933;50.754;11.508;2023-06-22T06:40:08;100150.19;;;24.92;100.00
21545;BME280;10933;50.754;11.508;2023-06-22T06:42:40;100121.66;;;24.24;100.00
21545;BME280;10933;50.754;11.508;2023-06-22T06:45:16;100101.16;;;25.69;100.00
21545;BME280;10933;50.754;11.508;2023-06-22T06:47:43;100119.53;;;25.86;100.00
21545;BME280;10933;50.754;11.508;2023-06-22T06:50:10;100118.50;;;25.48;100.00
21545;BME280;10933;50.754;11.508;2023-06-22T06:52:36;100105.09;;;26.13;100.00
21545;BME280;10933;50.754;11.508;2023-06-22T06:55:03;100118.72;;;26.76;100.00
21545;BME280;10933;50.754;11.508;2023-06-22T06:57:40;100147.44;;;26.71;100.00
21545;BME280;10933;50.754;11.508;2023-06-22T07:00:10;100155.06;;;27.35;100.00
21545;BME280;10933;50.754;11.508;2023-06-22T07:02:39;100165.59;;;28.38;100.00
21545;BME280;10933;50.754;11.508;2023-06-22T07:05:09;100221.25;;;28.29;100.00
21545;BME280;10933;50.754;11.508;2023-06-22T07:07:35;100206.47;;;27.85;100.00
21545;BME280;10933;50.754;11.508;2023-06-22T07:10:02;100218.03;;;27.87;100.00
21545;BME280;10933;50.754;11.508;2023-06-22T07:12:29;100209.06;;;27.66;100.00
21545;BME280;10933;50.754;11.508;2023-06-22T07:15:02;100216.66;;;28.21;100.00
21545;BME280;10933;50.754;11.508;2023-06-22T07:17:28;100241.34;;;29.61;100.00
21545;BME280;10933;50.754;11.508;2023-06-22T07:19:55;100379.81;;;29.87;100.00
21545;BME280;10933;50.754;11.508;2023-06-22T07:22:21;100185.16;;;28.01;100.00
21545;BME280;10933;50.754;11.508;2023-06-22T07:24:47;99878.22;;;28.05;100.00
21545;BME280;10933;50.754;11.508;2023-06-22T07:27:13;99701.78;;;28.97;100.00
21545;BME280;10933;50.754;11.508;2023-06-22T07:29:42;99464.75;;;29.83;100.00
21545;BME280;10933;50.754;11.508;2023-06-22T07:32:09;99425.63;;;30.54;100.00
21545;BME280;10933;50.754;11.508;2023-06-22T07:34:35;99456.75;;;30.67;100.00
21545;BME280;10933;50.754;11.508;2023-06-22T07:37:01;99490.81;;;30.50;100.00
21545;BME280;10933;50.754;11.508;2023-06-22T07:39:28;99446.22;;;29.57;100.00
21545;BME280;10933;50.754;11.508;2023-06-22T07:41:54;99369.66;;;30.08;100.00
21545;BME280;10933;50.754;11.508;2023-06-22T07:44:20;99413.97;;;29.90;100.00
21545;BME280;10933;50.754;11.508;2023-06-22T07:46:47;99416.72;;;30.34;100.00
21545;BME280;10933;50.754;11.508;2023-06-22T07:49:13;99432.00;;;30.62;100.00
21545;BME280;10933;50.754;11.508;2023-06-22T07:51:40;99516.72;;;30.61;100.00
21545;BME280;10933;50.754;11.508;2023-06-22T07:54:06;99514.72;;;30.58;100.00
21545;BME280;10933;50.754;11.508;2023-06-22T07:56:33;99556.31;;;30.84;100.00
21545;BME280;10933;50.754;11.508;2023-06-22T07:58:59;99563.03;;;30.35;100.00
21545;BME280;10933;50.754;11.508;2023-06-22T08:01:26;99615.38;;;31.04;100.00
21545;BME280;10933;50.754;11.508;2023-06-22T08:03:53;99627.59;;;31.40;100.00
21545;BME280;10933;50.754;11.508;2023-06-22T08:06:19;99682.16;;;31.48;100.00
21545;BME280;10933;50.754;11.508;2023-06-22T08:08:45;99693.72;;;31.50;100.00
21545;BME280;10933;50.754;11.508;2023-06-22T08:11:14;99709.16;;;31.92;100.00
21545;BME280;10933;50.754;11.508;2023-06-22T08:13:40;99731.06;;;32.98;100.00
21545;BME280;10933;50.754;11.508;2023-06-22T08:16:06;99775.00;;;33.65;100.00
21545;BME280;10933;50.754;11.508;2023-06-22T08:18:33;99769.66;;;32.64;100.00
21545;BME280;10933;50.754;11.508;2023-06-22T08:20:59;99737.84;;;33.15;100.00
21545;BME280;10933;50.754;11.508;2023-06-22T08:23:25;99754.25;;;33.38;100.00
21545;BME280;10933;50.754;11.508;2023-06-22T08:25:52;99759.84;;;33.31;100.00
21545;BME280;10933;50.754;11.508;2023-06-22T08:28:18;99749.41;;;33.78;100.00
21545;BME280;10933;50.754;11.508;2023-06-22T08:30:44;99728.94;;;34.20;100.00
21545;BME280;10933;50.754;11.508;2023-06-22T08:33:11;99695.66;;;34.43;100.00
21545;BME280;10933;50.754;11.508;2023-06-22T08:35:37;99690.06;;;34.36;100.00
21545;BME280;10933;50.754;11.508;2023-06-22T08:38:03;99687.41;;;34.01;100.00
21545;BME280;10933;50.754;11.508;2023-06-22T08:40:29;99658.84;;;34.41;100.00
21545;BME280;10933;50.754;11.508;2023-06-22T08:42:56;99666.97;;;34.14;100.00
21545;BME280;10933;50.754;11.508;2023-06-22T08:45:22;99648.38;;;35.04;100.00
21545;BME280;10933;50.754;11.508;2023-06-22T08:47:48;99644.59;;;34.11;100.00
21545;BME280;10933;50.754;11.508;2023-06-22T08:50:14;99636.69;;;33.84;100.00
21545;BME280;10933;50.754;11.508;2023-06-22T08:52:41;99611.94;;;34.52;100.00
21545;BME280;10933;50.754;11.508;2023-06-22T08:55:08;99626.41;;;34.47;100.00
21545;BME280;10933;50.754;11.508;2023-06-22T08:57:35;99615.16;;;34.51;100.00
21545;BME280;10933;50.754;11.508;2023-06-22T09:00:05;99603.22;;;34.43;100.00
21545;BME280;10933;50.754;11.508;2023-06-22T09:02:33;99620.47;;;34.38;100.00
21545;BME280;10933;50.754;11.508;2023-06-22T09:05:02;99623.88;;;33.90;100.00
21545;BME280;10933;50.754;11.508;2023-06-22T09:07:29;99602.31;;;33.87;100.00
21545;BME280;10933;50.754;11.508;2023-06-22T09:09:55;99600.66;;;34.01;100.00
21545;BME280;10933;50.754;11.508;2023-06-22T09:12:22;99601.38;;;34.19;100.00
21545;BME280;10933;50.754;11.508;2023-06-22T09:14:51;99603.66;;;34.38;100.00
21545;BME280;10933;50.754;11.508;2023-06-22T09:17:18;99599.91;;;34.56;100.00
21545;BME280;10933;50.754;11.508;2023-06-22T09:19:44;99606.00;;;34.99;100.00
21545;BME280;10933;50.754;11.508;2023-06-22T09:22:10;99610.72;;;34.57;100.00
21545;BME280;10933;50.754;11.508;2023-06-22T09:24:36;99615.97;;;34.51;100.00
21545;BME280;10933;50.754;11.508;2023-06-22T09:27:03;99612.03;;;34.97;100.00
21545;BME280;10933;50.754;11.508;2023-06-22T09:29:29;99612.72;;;35.05;100.00
21545;BME280;10933;50.754;11.508;2023-06-22T09:31:55;99589.75;;;36.73;100.00
21545;BME280;10933;50.754;11.508;2023-06-22T09:34:21;99609.00;;;36.21;100.00
21545;BME280;10933;50.754;11.508;2023-06-22T09:36:47;99629.81;;;35.21;100.00
21545;BME280;10933;50.754;11.508;2023-06-22T09:39:14;99650.09;;;34.25;100.00
21545;BME280;10933;50.754;11.508;2023-06-22T09:41:40;99656.63;;;34.01;100.00
21545;BME280;10933;50.754;11.508;2023-06-22T09:44:06;99667.19;;;33.43;100.00
21545;BME280;10933;50.754;11.508;2023-06-22T09:46:32;99653.91;;;33.72;100.00
21545;BME280;10933;50.754;11.508;2023-06-22T09:48:58;99644.13;;;34.23;100.00
21545;BME280;10933;50.754;11.508;2023-06-22T09:51:25;99631.41;;;34.74;100.00
21545;BME280;10933;50.754;11.508;2023-06-22T09:53:51;99650.22;;;34.04;100.00
21545;BME280;10933;50.754;11.508;2023-06-22T09:56:18;99638.03;;;34.46;100.00
21545;BME280;10933;50.754;11.508;2023-06-22T09:58:45;99653.53;;;33.70;100.00
21545;BME280;10933;50.754;11.508;2023-06-22T10:01:12;99633.31;;;34.25;100.00
21545;BME280;10933;50.754;11.508;2023-06-22T10:03:41;99620.28;;;34.63;100.00
21545;BME280;10933;50.754;11.508;2023-06-22T10:06:07;99622.66;;;34.65;100.00
21545;BME280;10933;50.754;11.508;2023-06-22T10:08:35;99610.47;;;35.34;100.00
21545;BME280;10933;50.754;11.508;2023-06-22T10:11:02;99597.91;;;35.80;100.00
21545;BME280;10933;50.754;11.508;2023-06-22T10:13:29;99602.66;;;35.52;100.00
21545;BME280;10933;50.754;11.508;2023-06-22T10:15:55;99592.78;;;36.36;100.00
21545;BME280;10933;50.754;11.508;2023-06-22T10:18:21;99606.81;;;36.05;100.00
21545;BME280;10933;50.754;11.508;2023-06-22T10:20:49;99598.03;;;36.03;100.00
21545;BME280;10933;50.754;11.508;2023-06-22T10:23:21;99608.16;;;35.97;100.00
21545;BME280;10933;50.754;11.508;2023-06-22T10:25:48;99602.28;;;35.81;100.00
21545;BME280;10933;50.754;11.508;2023-06-22T10:28:14;99607.28;;;35.66;100.00
21545;BME280;10933;50.754;11.508;2023-06-22T10:30:41;99585.84;;;36.13;100.00
21545;BME280;10933;50.754;11.508;2023-06-22T10:33:08;99598.47;;;35.67;100.00
21545;BME280;10933;50.754;11.508;2023-06-22T10:35:35;99580.03;;;36.28;100.00
21545;BME280;10933;50.754;11.508;2023-06-22T10:38:04;99549.16;;;37.61;100.00
21545;BME280;10933;50.754;11.508;2023-06-22T10:40:30;99577.53;;;36.60;100.00
21545;BME280;10933;50.754;11.508;2023-06-22T10:42:56;99603.41;;;35.56;100.00
21545;BME280;10933;50.754;11.508;2023-06-22T10:45:23;99614.28;;;35.13;100.00
21545;BME280;10933;50.754;11.508;2023-06-22T10:47:49;99617.28;;;35.33;100.00
21545;BME280;10933;50.754;11.508;2023-06-22T10:50:15;99601.41;;;35.16;100.00
21545;BME280;10933;50.754;11.508;2023-06-22T10:52:42;99613.34;;;34.78;100.00
21545;BME280;10933;50.754;11.508;2023-06-22T10:55:09;99596.84;;;34.95;100.00
21545;BME280;10933;50.754;11.508;2023-06-22T10:57:35;99612.75;;;34.53;100.00
21545;BME280;10933;50.754;11.508;2023-06-22T11:00:03;99589.63;;;35.31;100.00
21545;BME280;10933;50.754;11.508;2023-06-22T11:02:31;99566.22;;;35.79;100.00
21545;BME280;10933;50.754;11.508;2023-06-22T11:04:58;99579.91;;;35.43;100.00
21545;BME280;10933;50.754;11.508;2023-06-22T11:07:26;99611.72;;;34.22;100.00
21545;BME280;10933;50.754;11.508;2023-06-22T11:09:54;99604.81;;;34.44;100.00
21545;BME280;10933;50.754;11.508;2023-06-22T11:12:21;99584.97;;;34.73;100.00
21545;BME280;10933;50.754;11.508;2023-06-22T11:14:47;99568.75;;;34.98;100.00
21545;BME280;10933;50.754;11.508;2023-06-22T11:17:13;99570.72;;;35.01;100.00
21545;BME280;10933;50.754;11.508;2023-06-22T11:19:39;99584.88;;;33.55;100.00
21545;BME280;10933;50.754;11.508;2023-06-22T11:22:06;99549.63;;;33.68;100.00
21545;BME280;10933;50.754;11.508;2023-06-22T11:24:32;99528.38;;;33.81;100.00
21545;BME280;10933;50.754;11.508;2023-06-22T11:26:58;99510.97;;;34.70;100.00
21545;BME280;10933;50.754;11.508;2023-06-22T11:29:24;99505.31;;;34.74;100.00
21545;BME280;10933;50.754;11.508;2023-06-22T11:31:50;99511.09;;;34.52;100.00
21545;BME280;10933;50.754;11.508;2023-06-22T11:34:17;99493.06;;;34.98;100.00
21545;BME280;10933;50.754;11.508;2023-06-22T11:36:45;99495.50;;;34.96;100.00
21545;BME280;10933;50.754;11.508;2023-06-22T11:39:11;99485.72;;;35.12;100.00
21545;BME280;10933;50.754;11.508;2023-06-22T11:41:40;99469.53;;;35.57;100.00
21545;BME280;10933;50.754;11.508;2023-06-22T11:44:06;99473.03;;;35.34;100.00
21545;BME280;10933;50.754;11.508;2023-06-22T11:46:32;99461.75;;;35.68;100.00
21545;BME280;10933;50.754;11.508;2023-06-22T11:48:59;99439.84;;;36.60;100.00
21545;BME280;10933;50.754;11.508;2023-06-22T11:51:25;99455.38;;;35.94;100.00
21545;BME280;10933;50.754;11.508;2023-06-22T11:53:51;99454.34;;;35.54;100.00
21545;BME280;10933;50.754;11.508;2023-06-22T11:56:18;99469.75;;;35.08;100.00
21545;BME280;10933;50.754;11.508;2023-06-22T11:58:44;99486.00;;;34.42;100.00
21545;BME280;10933;50.754;11.508;2023-06-22T12:01:10;99464.66;;;34.59;100.00
21545;BME280;10933;50.754;11.508;2023-06-22T12:03:36;99477.13;;;34.50;100.00
21545;BME280;10933;50.754;11.508;2023-06-22T12:06:02;99456.78;;;34.80;100.00
21545;BME280;10933;50.754;11.508;2023-06-22T12:08:28;99441.22;;;35.14;100.00
21545;BME280;10933;50.754;11.508;2023-06-22T12:10:55;99437.31;;;35.07;100.00
21545;BME280;10933;50.754;11.508;2023-06-22T12:13:22;99417.13;;;35.50;100.00
21545;BME280;10933;50.754;11.508;2023-06-22T12:15:48;99411.81;;;35.56;100.00
21545;BME280;10933;50.754;11.508;2023-06-22T12:18:14;99412.16;;;35.31;100.00
21545;BME280;10933;50.754;11.508;2023-06-22T12:20:41;99422.09;;;35.08;100.00
21545;BME280;10933;50.754;11.508;2023-06-22T12:23:07;99421.56;;;34.79;100.00
21545;BME280;10933;50.754;11.508;2023-06-22T12:25:33;99413.00;;;34.97;100.00
21545;BME280;10933;50.754;11.508;2023-06-22T12:27:59;99403.59;;;35.45;100.00
21545;BME280;10933;50.754;11.508;2023-06-22T12:30:25;99375.25;;;36.13;100.00
21545;BME280;10933;50.754;11.508;2023-06-22T12:32:51;99380.84;;;35.90;100.00
21545;BME280;10933;50.754;11.508;2023-06-22T12:35:18;99403.28;;;35.05;100.00
21545;BME280;10933;50.754;11.508;2023-06-22T12:37:44;99413.22;;;34.38;100.00
21545;BME280;10933;50.754;11.508;2023-06-22T12:40:11;99409.44;;;34.11;100.00
21545;BME280;10933;50.754;11.508;2023-06-22T12:42:37;99359.94;;;35.67;100.00